createdAt,value
2018-06-14T00:02:26.298Z,99.10
2018-06-14T00:04:55.145Z,99.20
2018-06-14T00:07:23.717Z,99.10
2018-06-14T00:09:52.433Z,99.00
2018-06-14T00:12:20.944Z,99.10
2018-06-14T00:14:49.562Z,99.00
2018-06-14T00:17:18.160Z,99.00
2018-06-14T00:19:46.634Z,99.00
2018-06-14T00:22:15.180Z,99.00
2018-06-14T00:24:43.908Z,99.10
2018-06-14T00:27:12.787Z,99.20
2018-06-14T00:29:41.243Z,99.30
2018-06-14T00:32:09.719Z,99.60
2018-06-14T00:34:38.537Z,99.30
2018-06-14T00:37:07.415Z,99.70
2018-06-14T00:39:36.533Z,99.50
2018-06-14T00:44:33.799Z,99.30
2018-06-14T00:47:02.599Z,99.40
2018-06-14T00:49:31.136Z,99.50
2018-06-14T00:51:59.696Z,99.60
2018-06-14T00:54:28.143Z,99.30
2018-06-14T00:57:07.837Z,99.30
2018-06-14T00:59:36.447Z,99.50
2018-06-14T01:02:04.967Z,99.30
2018-06-14T01:04:33.451Z,99.30
2018-06-14T01:07:02.330Z,99.70
2018-06-14T01:09:31.029Z,99.40
2018-06-14T01:11:59.623Z,99.20
2018-06-14T01:14:28.111Z,99.20
2018-06-14T01:16:56.714Z,99.50
2018-06-14T01:19:25.299Z,99.60
2018-06-14T01:21:53.818Z,99.60
2018-06-14T01:24:22.492Z,99.50
2018-06-14T01:26:53.511Z,99.30
2018-06-14T01:29:22.189Z,99.30
2018-06-14T01:31:50.791Z,99.50
2018-06-14T01:34:19.690Z,99.50
2018-06-14T01:36:48.495Z,99.50
2018-06-14T01:39:17.154Z,99.50
2018-06-14T01:41:45.960Z,99.60
2018-06-14T01:44:14.372Z,99.70
2018-06-14T01:46:43.317Z,99.70
2018-06-14T01:49:11.851Z,99.70
2018-06-14T01:51:40.316Z,99.80
2018-06-14T01:54:08.851Z,99.70
2018-06-14T01:56:37.374Z,99.90
2018-06-14T01:59:05.916Z,99.90
2018-06-14T02:01:34.447Z,99.90
2018-06-14T02:04:03.236Z,99.60
2018-06-14T02:06:32.010Z,99.50
2018-06-14T02:09:00.953Z,99.70
2018-06-14T02:11:29.453Z,99.50
2018-06-14T02:13:57.948Z,99.40
2018-06-14T02:16:26.590Z,99.30
2018-06-14T02:18:55.280Z,99.30
2018-06-14T02:21:24.114Z,99.50
2018-06-14T02:23:52.674Z,99.90
2018-06-14T02:26:21.148Z,99.70
2018-06-14T02:28:49.632Z,99.30
2018-06-14T02:31:18.456Z,99.20
2018-06-14T02:33:47.282Z,99.30
2018-06-14T02:36:16.151Z,99.40
2018-06-14T02:38:44.727Z,99.50
2018-06-14T02:41:13.281Z,99.60
2018-06-14T02:43:41.876Z,99.70
2018-06-14T02:46:10.491Z,99.80
2018-06-14T02:48:38.980Z,99.80
2018-06-14T02:51:07.675Z,99.70
2018-06-14T02:53:36.187Z,99.90
2018-06-14T02:56:04.714Z,99.60
2018-06-14T02:58:33.248Z,99.70
2018-06-14T03:01:01.773Z,99.80
2018-06-14T03:03:30.276Z,99.60
2018-06-14T03:05:58.796Z,99.50
2018-06-14T03:08:27.351Z,99.50
2018-06-14T03:10:55.828Z,99.30
2018-06-14T03:13:24.450Z,99.30
2018-06-14T03:15:52.957Z,99.20
2018-06-14T03:18:21.801Z,99.60
2018-06-14T03:20:50.472Z,99.10
2018-06-14T03:23:18.937Z,99.10
2018-06-14T03:25:47.511Z,99.10
2018-06-14T03:28:16.365Z,99.10
2018-06-14T03:30:45.087Z,99.20
2018-06-14T03:33:13.656Z,99.20
2018-06-14T03:35:42.154Z,99.40
2018-06-14T03:38:10.680Z,99.30
2018-06-14T03:40:39.191Z,99.30
2018-06-14T03:43:07.925Z,99.40
2018-06-14T03:45:36.472Z,99.30
2018-06-14T03:48:05.012Z,98.70
2018-06-14T03:50:33.625Z,98.60
2018-06-14T03:53:02.371Z,98.60
2018-06-14T03:55:31.064Z,98.10
2018-06-14T03:57:59.798Z,97.70
2018-06-14T04:00:28.493Z,97.70
2018-06-14T04:02:57.296Z,97.80
2018-06-14T04:05:25.838Z,97.80
2018-06-14T04:07:54.584Z,98.00
2018-06-14T04:10:23.152Z,97.90
2018-06-14T04:12:51.627Z,97.90
2018-06-14T04:15:20.119Z,98.00
2018-06-14T04:17:53.081Z,97.90
2018-06-14T04:20:21.607Z,97.50
2018-06-14T04:22:50.050Z,97.40
2018-06-14T04:25:18.763Z,97.50
2018-06-14T04:27:47.285Z,97.40
2018-06-14T04:30:16.011Z,97.50
2018-06-14T04:32:44.568Z,97.50
2018-06-14T04:35:13.060Z,97.60
2018-06-14T04:37:48.020Z,97.80
2018-06-14T04:40:16.619Z,97.80
2018-06-14T04:42:45.313Z,97.40
2018-06-14T04:45:13.800Z,97.50
2018-06-14T04:47:42.343Z,97.50
2018-06-14T04:50:11.017Z,97.20
2018-06-14T04:52:39.561Z,96.60
2018-06-14T04:55:08.162Z,96.10
2018-06-14T04:57:36.692Z,96.20
2018-06-14T05:00:08.568Z,96.50
2018-06-14T05:02:37.247Z,95.90
2018-06-14T05:05:06.387Z,96.00
2018-06-14T05:07:34.896Z,95.50
2018-06-14T05:10:03.462Z,95.50
2018-06-14T05:12:31.959Z,95.70
2018-06-14T05:15:00.495Z,96.00
2018-06-14T05:17:29.392Z,96.20
2018-06-14T05:19:58.064Z,95.70
2018-06-14T05:22:26.602Z,95.30
2018-06-14T05:24:55.158Z,95.50
2018-06-14T05:27:23.676Z,95.50
2018-06-14T05:29:52.507Z,95.40
2018-06-14T05:32:21.060Z,95.50
2018-06-14T05:34:49.671Z,95.20
2018-06-14T05:37:18.476Z,95.10
2018-06-14T05:39:46.989Z,95.50
2018-06-14T05:42:15.538Z,95.20
2018-06-14T05:44:44.045Z,95.10
2018-06-14T05:47:12.995Z,95.20
2018-06-14T05:49:41.660Z,95.20
2018-06-14T05:52:10.180Z,95.10
2018-06-14T05:54:39.206Z,95.10
2018-06-14T05:57:07.775Z,94.90
2018-06-14T05:59:36.299Z,95.10
2018-06-14T06:02:04.834Z,94.70
2018-06-14T06:04:33.506Z,94.60
2018-06-14T06:07:02.101Z,94.50
2018-06-14T06:09:31.080Z,94.10
2018-06-14T06:11:59.583Z,94.00
2018-06-14T06:14:28.230Z,93.80
2018-06-14T06:16:56.725Z,93.80
2018-06-14T06:19:25.718Z,93.70
2018-06-14T06:21:54.590Z,93.60
2018-06-14T06:24:23.219Z,93.60
2018-06-14T06:26:51.759Z,93.60
2018-06-14T06:29:20.247Z,93.40
2018-06-14T06:31:49.001Z,93.30
2018-06-14T06:34:17.731Z,93.20
2018-06-14T06:36:46.573Z,93.20
2018-06-14T06:39:15.125Z,93.00
2018-06-14T06:41:43.745Z,92.20
2018-06-14T06:44:12.281Z,92.10
2018-06-14T06:46:40.831Z,92.50
2018-06-14T06:49:09.543Z,91.90
2018-06-14T06:51:38.430Z,91.70
2018-06-14T06:54:07.064Z,91.90
2018-06-14T06:56:35.866Z,91.80
2018-06-14T06:59:04.514Z,91.50
2018-06-14T07:01:33.286Z,91.10
2018-06-14T07:04:01.816Z,90.90
2018-06-14T07:06:30.481Z,90.30
2018-06-14T07:08:59.031Z,90.60
2018-06-14T07:11:27.615Z,88.70
2018-06-14T07:13:56.068Z,87.00
2018-06-14T07:16:24.961Z,87.00
2018-06-14T07:21:22.648Z,84.50
2018-06-14T07:23:51.145Z,84.50
2018-06-14T07:26:19.673Z,83.20
2018-06-14T07:28:48.214Z,80.50
2018-06-14T07:31:16.836Z,78.90
2018-06-14T07:33:45.473Z,78.40
2018-06-14T07:36:14.288Z,76.30
2018-06-14T07:38:42.819Z,74.70
2018-06-14T07:41:11.442Z,73.30
2018-06-14T07:43:41.389Z,73.10
2018-06-14T07:46:09.959Z,75.10
2018-06-14T07:48:39.936Z,74.10
2018-06-14T07:51:08.781Z,71.90
2018-06-14T07:53:37.925Z,70.50
2018-06-14T07:56:06.790Z,69.00
2018-06-14T08:01:03.813Z,69.00
2018-06-14T08:03:32.744Z,69.00
2018-06-14T08:06:01.406Z,68.60
2018-06-14T08:08:30.399Z,66.70
2018-06-14T08:10:58.980Z,65.70
2018-06-14T08:13:27.527Z,65.70
2018-06-14T08:15:56.207Z,64.80
2018-06-14T08:18:25.010Z,65.80
2018-06-14T08:20:53.603Z,65.20
2018-06-14T08:23:24.963Z,65.50
2018-06-14T08:25:53.446Z,64.50
2018-06-14T08:28:22.042Z,64.00
2018-06-14T08:33:19.047Z,66.00
2018-06-14T08:35:47.568Z,63.30
2018-06-14T08:38:16.173Z,64.10
2018-06-14T08:40:44.992Z,63.60
2018-06-14T08:43:13.756Z,64.50
2018-06-14T08:45:42.499Z,64.00
2018-06-14T08:48:11.390Z,63.10
2018-06-14T08:50:39.900Z,63.10
2018-06-14T08:53:08.442Z,63.20
2018-06-14T08:55:37.037Z,62.70
2018-06-14T08:58:06.026Z,63.00
2018-06-14T09:00:34.932Z,62.80
2018-06-14T09:03:03.691Z,62.80
2018-06-14T09:05:32.262Z,63.00
2018-06-14T09:08:01.051Z,62.00
2018-06-14T09:10:29.881Z,61.60
2018-06-14T09:12:58.696Z,61.70
2018-06-14T09:15:27.241Z,60.50
2018-06-14T09:17:56.041Z,60.30
2018-06-14T09:20:24.566Z,61.00
2018-06-14T09:22:53.232Z,61.90
2018-06-14T09:25:22.061Z,60.30
2018-06-14T09:27:50.674Z,59.20
2018-06-14T09:30:21.460Z,58.60
2018-06-14T09:32:51.736Z,59.00
2018-06-14T09:35:21.490Z,58.50
2018-06-14T09:37:51.565Z,58.60
2018-06-14T09:40:21.409Z,58.60
2018-06-14T09:42:52.506Z,57.30
2018-06-14T09:45:21.367Z,57.50
2018-06-14T09:47:49.950Z,57.50
2018-06-14T09:50:18.451Z,56.10
2018-06-14T09:52:47.342Z,56.10
2018-06-14T09:55:16.687Z,55.90
2018-06-14T09:57:45.335Z,56.10
2018-06-14T10:00:14.056Z,56.20
2018-06-14T10:02:42.973Z,54.20
2018-06-14T10:05:11.885Z,53.60
2018-06-14T10:07:40.670Z,53.60
2018-06-14T10:10:09.230Z,52.80
2018-06-14T10:12:38.842Z,52.20
2018-06-14T10:15:07.545Z,51.80
2018-06-14T10:17:36.285Z,52.20
2018-06-14T10:20:05.043Z,51.60
2018-06-14T10:22:33.769Z,51.50
2018-06-14T10:25:02.452Z,50.80
2018-06-14T10:27:30.964Z,49.30
2018-06-14T10:29:59.543Z,51.00
2018-06-14T10:32:28.239Z,48.10
2018-06-14T10:34:57.133Z,46.80
2018-06-14T10:37:25.778Z,46.50
2018-06-14T10:42:22.690Z,45.30
2018-06-14T10:44:51.416Z,45.70
2018-06-14T10:47:20.160Z,44.20
2018-06-14T10:49:48.901Z,42.20
2018-06-14T10:52:17.560Z,44.00
2018-06-14T10:54:46.048Z,44.50
2018-06-14T10:57:14.817Z,43.00
2018-06-14T10:59:43.283Z,43.00
2018-06-14T11:02:11.936Z,43.30
2018-06-14T11:04:40.411Z,43.40
2018-06-14T11:07:09.033Z,42.70
2018-06-14T11:09:37.546Z,42.00
2018-06-14T11:12:06.396Z,43.20
2018-06-14T11:14:34.927Z,42.40
2018-06-14T11:17:03.568Z,42.40
2018-06-14T11:19:32.206Z,40.00
2018-06-14T11:22:01.098Z,40.30
2018-06-14T11:24:29.707Z,41.70
2018-06-14T11:26:58.241Z,40.20
2018-06-14T11:29:26.783Z,39.50
2018-06-14T11:31:55.343Z,40.60
2018-06-14T11:34:24.130Z,38.90
2018-06-14T11:36:52.833Z,40.20
2018-06-14T11:39:21.366Z,40.20
2018-06-14T11:41:49.952Z,41.60
2018-06-14T11:44:18.669Z,41.20
2018-06-14T11:46:47.408Z,40.40
2018-06-14T11:49:15.935Z,39.10
2018-06-14T11:51:44.475Z,40.20
2018-06-14T11:54:13.196Z,40.00
2018-06-14T11:56:41.776Z,38.50
2018-06-14T11:59:10.403Z,38.90
2018-06-14T12:01:39.615Z,38.90
2018-06-14T12:04:08.382Z,37.30
2018-06-14T12:06:37.155Z,36.20
2018-06-14T12:09:07.670Z,36.10
2018-06-14T12:11:36.269Z,35.70
2018-06-14T12:14:04.883Z,35.30
2018-06-14T12:16:33.848Z,34.40
2018-06-14T12:19:02.499Z,35.10
2018-06-14T12:21:31.327Z,36.60
2018-06-14T12:23:59.902Z,35.00
2018-06-14T12:26:28.874Z,37.60
2018-06-14T12:28:57.474Z,36.00
2018-06-14T12:31:26.159Z,35.40
2018-06-14T12:33:54.910Z,36.50
2018-06-14T12:36:23.533Z,35.90
2018-06-14T12:38:52.464Z,35.10
2018-06-14T12:41:21.100Z,35.80
2018-06-14T12:43:49.603Z,36.50
2018-06-14T12:46:18.305Z,35.50
2018-06-14T12:48:47.241Z,35.10
2018-06-14T12:51:15.756Z,33.80
2018-06-14T12:53:44.281Z,32.90
2018-06-14T12:56:13.047Z,30.70
2018-06-14T12:58:41.936Z,30.70
2018-06-14T13:01:10.613Z,30.80
2018-06-14T13:03:39.604Z,31.10
2018-06-14T13:06:08.724Z,30.40
2018-06-14T13:08:37.284Z,31.20
2018-06-14T13:11:06.003Z,33.20
2018-06-14T13:13:34.600Z,33.30
2018-06-14T13:18:32.021Z,30.50
2018-06-14T13:21:05.495Z,31.40
2018-06-14T13:23:34.037Z,30.30
2018-06-14T13:26:02.860Z,30.70
2018-06-14T13:28:31.415Z,30.20
2018-06-14T13:31:00.123Z,29.60
2018-06-14T13:33:29.248Z,32.90
2018-06-14T13:35:59.384Z,33.30
2018-06-14T13:38:27.902Z,32.50
2018-06-14T13:40:56.597Z,32.30
2018-06-14T13:43:25.142Z,32.10
2018-06-14T13:45:53.689Z,31.00
2018-06-14T13:48:22.625Z,31.40
2018-06-14T13:50:51.316Z,31.70
2018-06-14T13:53:19.949Z,33.20
2018-06-14T13:55:48.713Z,33.50
2018-06-14T13:58:17.276Z,33.90
2018-06-14T14:00:46.022Z,34.80
2018-06-14T14:03:14.477Z,35.80
2018-06-14T14:05:43.026Z,37.60
2018-06-14T14:08:11.589Z,37.70
2018-06-14T14:10:40.093Z,37.30
2018-06-14T14:13:08.719Z,35.40
2018-06-14T14:15:37.730Z,32.80
2018-06-14T14:18:06.408Z,32.60
2018-06-14T14:20:35.118Z,31.60
2018-06-14T14:23:03.721Z,31.40
2018-06-14T14:25:32.440Z,33.80
2018-06-14T14:28:01.085Z,35.00
2018-06-14T14:30:29.729Z,37.00
2018-06-14T14:32:58.361Z,37.50
2018-06-14T14:35:26.874Z,39.70
2018-06-14T14:37:55.517Z,39.60
2018-06-14T14:40:24.320Z,41.60
2018-06-14T14:42:52.923Z,42.00
2018-06-14T14:45:21.676Z,41.70
2018-06-14T14:47:50.215Z,42.40
2018-06-14T14:50:18.900Z,42.90
2018-06-14T14:52:47.725Z,42.30
2018-06-14T14:55:16.595Z,42.90
2018-06-14T14:57:45.559Z,43.30
2018-06-14T15:00:14.446Z,43.20
2018-06-14T15:02:43.313Z,43.70
2018-06-14T15:05:11.895Z,43.40
2018-06-14T15:07:40.473Z,42.30
2018-06-14T15:10:09.695Z,40.10
2018-06-14T15:12:38.252Z,37.70
2018-06-14T15:15:07.249Z,36.70
2018-06-14T15:17:36.026Z,35.70
2018-06-14T15:20:04.834Z,34.30
2018-06-14T15:25:01.708Z,37.30
2018-06-14T15:27:30.672Z,40.40
2018-06-14T15:29:59.325Z,41.90
2018-06-14T15:32:27.904Z,42.70
2018-06-14T15:34:56.498Z,44.70
2018-06-14T15:37:25.137Z,45.60
2018-06-14T15:39:53.828Z,45.70
2018-06-14T15:42:22.371Z,45.60
2018-06-14T15:44:51.468Z,47.80
2018-06-14T15:47:20.214Z,47.40
2018-06-14T15:49:49.231Z,47.60
2018-06-14T15:52:17.861Z,48.50
2018-06-14T15:54:56.700Z,49.80
2018-06-14T15:57:25.273Z,49.70
2018-06-14T15:59:54.069Z,49.90
2018-06-14T16:02:23.152Z,49.70
2018-06-14T16:04:52.355Z,49.90
2018-06-14T16:07:21.247Z,49.80
2018-06-14T16:09:49.956Z,51.30
2018-06-14T16:12:18.779Z,50.40
2018-06-14T16:14:47.941Z,50.60
2018-06-14T16:17:16.557Z,51.30
2018-06-14T16:19:45.490Z,51.60
2018-06-14T16:22:14.063Z,52.20
2018-06-14T16:24:42.677Z,52.80
2018-06-14T16:27:11.316Z,53.20
2018-06-14T16:29:39.958Z,53.50
2018-06-14T16:32:08.931Z,53.80
2018-06-14T16:34:38.046Z,53.50
2018-06-14T16:37:07.140Z,54.00
2018-06-14T16:39:35.671Z,54.50
2018-06-14T16:44:33.121Z,55.90
2018-06-14T16:47:01.996Z,56.40
2018-06-14T16:49:30.794Z,56.80
2018-06-14T16:51:59.430Z,57.10
2018-06-14T16:54:28.237Z,57.60
2018-06-14T16:56:56.930Z,57.70
2018-06-14T16:59:25.625Z,57.50
2018-06-14T17:01:54.161Z,57.80
2018-06-14T17:04:23.096Z,59.20
2018-06-14T17:06:52.077Z,58.70
2018-06-14T17:09:20.818Z,58.80
2018-06-14T17:11:49.545Z,60.00
2018-06-14T17:14:18.360Z,62.60
2018-06-14T17:16:47.176Z,69.40
2018-06-14T17:19:15.910Z,70.50
2018-06-14T17:21:44.644Z,77.00
2018-06-14T17:24:13.550Z,81.90
2018-06-14T17:26:42.946Z,83.80
2018-06-14T17:31:40.160Z,89.30
2018-06-14T17:34:08.877Z,90.50
2018-06-14T17:36:37.634Z,91.80
2018-06-14T17:39:07.367Z,93.30
2018-06-14T17:41:36.749Z,93.30
2018-06-14T17:44:05.304Z,94.60
2018-06-14T17:46:34.042Z,94.90
2018-06-14T17:49:02.870Z,94.90
2018-06-14T17:51:31.684Z,96.20
2018-06-14T17:54:00.537Z,95.90
2018-06-14T17:56:29.217Z,96.00
2018-06-14T17:58:57.972Z,96.70
2018-06-14T18:01:27.093Z,97.80
2018-06-14T18:03:55.845Z,98.00
2018-06-14T18:06:25.485Z,98.70
2018-06-14T18:08:54.320Z,99.10
2018-06-14T18:11:23.627Z,99.00
2018-06-14T18:13:52.618Z,97.50
2018-06-14T18:16:21.248Z,98.30
2018-06-14T18:18:49.958Z,98.70
2018-06-14T18:21:18.678Z,99.20
2018-06-14T18:23:47.922Z,99.20
2018-06-14T18:26:16.665Z,99.80
2018-06-14T18:28:45.450Z,99.90
2018-06-14T18:31:14.313Z,99.70
2018-06-14T18:33:43.507Z,99.90
2018-06-14T18:36:12.055Z,99.20
2018-06-14T18:38:40.883Z,98.80
2018-06-14T18:41:09.833Z,99.90
2018-06-14T18:43:38.756Z,99.90
2018-06-14T18:46:07.575Z,99.90
2018-06-14T18:48:36.236Z,99.90
2018-06-14T18:51:05.058Z,99.90
2018-06-14T18:53:33.696Z,99.90
2018-06-14T18:56:02.532Z,99.90
2018-06-14T18:58:31.309Z,99.90
2018-06-14T19:01:00.314Z,99.90
2018-06-14T19:03:29.263Z,99.90
2018-06-14T19:08:26.849Z,99.90
2018-06-14T19:10:55.566Z,99.90
2018-06-14T19:13:24.384Z,99.90
2018-06-14T19:15:53.237Z,99.90
2018-06-14T19:18:22.127Z,99.90
2018-06-14T19:20:51.276Z,99.90
2018-06-14T19:23:20.122Z,99.90
2018-06-14T19:25:49.212Z,99.90
2018-06-14T19:28:18.875Z,99.90
2018-06-14T19:30:48.584Z,99.90
2018-06-14T19:33:17.912Z,99.90
2018-06-14T19:35:46.942Z,99.90
2018-06-14T19:38:16.231Z,99.90
2018-06-14T19:40:44.811Z,99.90
2018-06-14T19:43:13.636Z,99.90
2018-06-14T19:45:42.668Z,99.90
2018-06-14T19:48:11.491Z,99.90
2018-06-14T19:50:40.891Z,99.90
2018-06-14T19:53:09.816Z,99.90
2018-06-14T19:55:38.752Z,99.90
2018-06-14T19:58:07.336Z,99.90
2018-06-14T20:00:36.259Z,99.90
2018-06-14T20:03:05.235Z,99.90
2018-06-14T20:05:33.981Z,99.90
2018-06-14T20:08:02.610Z,99.90
2018-06-14T20:10:31.412Z,99.90
2018-06-14T20:13:00.234Z,99.90
2018-06-14T20:17:57.157Z,99.90
2018-06-14T20:20:25.886Z,99.90
2018-06-14T20:25:23.543Z,99.90
2018-06-14T20:27:52.829Z,99.90
2018-06-14T20:30:21.644Z,99.90
2018-06-14T20:35:18.598Z,99.90
2018-06-14T20:37:47.378Z,99.90
2018-06-14T20:40:16.095Z,99.90
2018-06-14T20:42:44.950Z,99.90
2018-06-14T20:45:13.684Z,99.90
2018-06-14T20:47:42.402Z,99.90
2018-06-14T20:50:11.448Z,99.90
2018-06-14T20:52:40.118Z,99.90
2018-06-14T20:55:09.331Z,99.90
2018-06-14T20:57:38.245Z,99.90
2018-06-14T21:00:06.835Z,99.90
2018-06-14T21:02:35.755Z,99.90
2018-06-14T21:05:04.469Z,99.90
2018-06-14T21:07:33.145Z,99.90
2018-06-14T21:10:01.910Z,99.90
2018-06-14T21:12:30.949Z,99.90
2018-06-14T21:14:59.505Z,99.90
2018-06-14T21:17:28.283Z,99.90
2018-06-14T21:19:57.097Z,99.90
2018-06-14T21:22:25.707Z,99.90
2018-06-14T21:24:54.718Z,99.90
2018-06-14T21:27:23.558Z,99.90
2018-06-14T21:29:52.361Z,99.90
2018-06-14T21:32:21.088Z,99.90
2018-06-14T21:34:49.697Z,99.90
2018-06-14T21:37:18.250Z,99.90
2018-06-14T21:39:46.772Z,99.90
2018-06-14T21:42:15.436Z,99.90
2018-06-14T21:44:44.000Z,99.90
2018-06-14T21:47:12.568Z,99.90
2018-06-14T21:49:41.482Z,99.90
2018-06-14T21:52:10.100Z,99.90
2018-06-14T21:54:38.931Z,99.90
2018-06-14T21:57:07.456Z,99.90
2018-06-14T21:59:36.487Z,99.90
2018-06-14T22:02:05.042Z,99.90
2018-06-14T22:04:33.835Z,99.90
2018-06-14T22:07:02.468Z,99.90
2018-06-14T22:09:31.467Z,99.90
2018-06-14T22:12:00.101Z,99.90
2018-06-14T22:14:28.651Z,99.90
2018-06-14T22:16:57.252Z,99.90
2018-06-14T22:19:25.973Z,99.90
2018-06-14T22:21:54.739Z,99.90
2018-06-14T22:24:23.435Z,99.90
2018-06-14T22:29:20.431Z,99.90
2018-06-14T22:31:49.410Z,99.90
2018-06-14T22:34:29.028Z,99.90
2018-06-14T22:36:58.012Z,99.90
2018-06-14T22:39:26.570Z,99.90
2018-06-14T22:41:55.129Z,99.90
2018-06-14T22:44:23.773Z,99.90
2018-06-14T22:46:52.307Z,99.90
2018-06-14T22:49:20.827Z,99.90
2018-06-14T22:52:00.537Z,99.90
2018-06-14T22:54:29.126Z,99.90
2018-06-14T22:56:57.627Z,99.90
2018-06-14T22:59:26.751Z,99.90
2018-06-14T23:01:55.315Z,99.90
2018-06-14T23:04:26.368Z,99.90
2018-06-14T23:06:55.080Z,99.90
2018-06-14T23:10:34.628Z,99.90
2018-06-14T23:13:03.731Z,99.90
2018-06-14T23:15:32.253Z,99.90
2018-06-14T23:18:01.195Z,99.90
2018-06-14T23:20:31.005Z,99.90
2018-06-14T23:23:00.277Z,99.90
2018-06-14T23:27:58.099Z,99.90
2018-06-14T23:30:26.749Z,99.90
2018-06-14T23:32:55.286Z,99.90
2018-06-14T23:35:24.089Z,99.90
2018-06-14T23:37:52.834Z,99.90
2018-06-14T23:40:21.614Z,99.90
2018-06-14T23:42:50.322Z,99.90
2018-06-14T23:45:18.851Z,99.90
2018-06-14T23:47:47.550Z,99.90
2018-06-14T23:50:16.223Z,99.90
2018-06-14T23:52:44.795Z,99.90
2018-06-14T23:55:13.300Z,99.90
2018-06-14T23:57:41.823Z,99.90
